Time;durP1;ratioP1;P1;durP2;ratioP2;P2;SDS_P1;SDS_P2;PMS_P1;PMS_P2;Temp;Humidity;BMP_temperature;BMP_pressure;BME280_temperature;BME280_humidity;BME280_pressure;Samples;Min_cycle;Max_cycle;Signal;HPM_P1;HPM_P2
2022/06/23 00:01:45;;;;;;;13.63;12.23;;;23.60;81.60;;;-142.21;100.00;112049.66;5058012;28;20517;-75
2022/06/23 00:04:15;;;;;;;16.17;14.47;;;23.60;81.90;;;-142.21;100.00;112049.66;5049424;28;20195;-75
2022/06/23 00:06:48;;;;;;;13.70;12.40;;;23.60;81.70;;;-142.21;100.00;112049.66;5058758;28;20221;-76
2022/06/23 00:09:39;;;;;;;12.97;11.67;;;23.60;81.70;;;-142.21;100.00;112049.66;5072317;28;20206;-75
2022/06/23 00:12:27;;;;;;;14.83;13.27;;;23.60;81.90;;;-142.21;100.00;112049.66;5069866;28;20260;-76
2022/06/23 00:15:15;;;;;;;13.83;12.57;;;23.50;82.30;;;-142.21;100.00;112049.66;5046100;28;20634;-77
2022/06/23 00:17:45;;;;;;;14.37;13.07;;;23.40;81.90;;;-142.21;100.00;112049.66;5026367;28;20203;-74
2022/06/23 00:20:18;;;;;;;13.30;11.97;;;23.30;82.50;;;-142.21;100.00;112049.66;5050695;28;20198;-77
2022/06/23 00:22:52;;;;;;;13.70;12.23;;;23.30;82.60;;;-142.21;100.00;112049.66;5054319;28;20190;-75
2022/06/23 00:25:41;;;;;;;11.77;10.67;;;23.20;82.50;;;-142.21;100.00;112049.66;5052980;28;20187;-77
2022/06/23 00:28:18;;;;;;;11.70;10.70;;;23.30;82.60;;;-142.21;100.00;112049.66;5063146;28;20222;-75
2022/06/23 00:30:52;;;;;;;11.97;10.77;;;23.30;82.30;;;-142.21;100.00;112049.66;5061610;28;20321;-76
2022/06/23 00:33:24;;;;;;;11.20;10.20;;;23.30;82.30;;;-142.21;100.00;112049.66;5061808;28;20196;-76
2022/06/23 00:35:54;;;;;;;16.83;10.40;;;23.30;82.30;;;-142.21;100.00;112049.66;5052453;28;20528;-76
2022/06/23 00:38:31;;;;;;;11.30;9.83;;;23.30;82.60;;;-142.21;100.00;112049.66;5071153;28;20211;-77
2022/06/23 00:41:01;;;;;;;12.00;9.80;;;23.30;82.50;;;-142.21;100.00;112049.66;5069525;28;20197;-74
2022/06/23 00:43:31;;;;;;;12.03;9.80;;;23.30;81.70;;;-142.21;100.00;112049.66;5072224;28;20201;-75
2022/06/23 00:46:09;;;;;;;10.53;9.53;;;23.30;81.70;;;-142.21;100.00;112049.66;5056481;28;20737;-76
2022/06/23 00:48:43;;;;;;;11.20;10.07;;;23.20;82.50;;;-142.21;100.00;112049.66;5071978;28;20199;-76
2022/06/23 00:51:18;;;;;;;10.70;9.60;;;23.20;83.20;;;-142.21;100.00;112049.66;5029728;28;20210;-74
2022/06/23 00:53:57;;;;;;;11.30;9.97;;;23.10;83.40;;;-142.21;100.00;112049.66;5071524;28;20227;-77
2022/06/23 00:56:47;;;;;;;10.17;9.27;;;23.10;83.00;;;-142.21;100.00;112049.66;5069338;28;20738;-75
2022/06/23 00:59:24;;;;;;;10.23;9.23;;;23.20;82.50;;;-142.21;100.00;112049.66;5058801;28;20626;-74
2022/06/23 01:01:58;;;;;;;11.27;10.10;;;23.20;82.50;;;-142.21;100.00;112049.66;5051922;28;20208;-76
2022/06/23 01:04:36;;;;;;;11.93;10.70;;;23.20;82.30;;;-142.21;100.00;112049.66;5069085;28;20193;-75
2022/06/23 01:07:24;;;;;;;10.60;9.50;;;23.20;82.30;;;-142.21;100.00;112049.66;5059577;28;20221;-77
2022/06/23 01:10:01;;;;;;;10.47;9.17;;;23.20;82.00;;;-142.21;100.00;112049.66;5055994;28;20632;-76
2022/06/23 01:12:39;;;;;;;13.67;9.70;;;23.10;81.40;;;-142.21;100.00;112049.66;5070646;28;20630;-75
2022/06/23 01:15:22;;;;;;;11.37;9.67;;;23.10;81.40;;;-142.21;100.00;112049.66;5064070;28;20190;-78
2022/06/23 01:17:57;;;;;;;12.17;10.83;;;23.10;81.40;;;-142.21;100.00;112049.66;5058774;28;20194;-74
2022/06/23 01:20:36;;;;;;;11.40;10.20;;;23.10;81.30;;;-142.21;100.00;112049.66;5053615;28;20280;-76
2022/06/23 01:23:58;;;;;;;11.50;10.30;;;23.00;81.60;;;-142.21;100.00;112049.66;5063888;28;20194;-75
2022/06/23 01:26:53;;;;;;;10.83;9.73;;;23.00;81.70;;;-142.21;100.00;112049.66;5067230;28;20299;-74
2022/06/23 01:29:29;;;;;;;10.40;9.40;;;23.00;81.70;;;-142.21;100.00;112049.66;5055764;28;20786;-75
2022/06/23 01:32:09;;;;;;;11.33;9.53;;;23.00;81.60;;;-142.21;100.00;112049.66;5055558;28;20216;-75
2022/06/23 01:34:48;;;;;;;12.47;9.67;;;23.00;81.90;;;-142.21;100.00;112049.66;5066294;28;20194;-75
2022/06/23 01:37:23;;;;;;;12.97;8.90;;;23.00;82.40;;;-142.21;100.00;112049.66;5074620;28;20291;-77
2022/06/23 01:40:02;;;;;;;10.00;9.00;;;23.00;82.20;;;-142.21;100.00;112049.66;5064702;28;20221;-75
2022/06/23 01:42:40;;;;;;;13.80;9.97;;;23.00;82.00;;;-142.21;100.00;112049.66;5069506;28;20225;-74
2022/06/23 01:45:19;;;;;;;9.60;8.77;;;22.90;81.70;;;-142.21;100.00;112049.66;5068256;28;20200;-74
2022/06/23 01:47:53;;;;;;;10.57;9.47;;;22.90;81.40;;;-142.21;100.00;112049.66;5038006;28;20301;-75
2022/06/23 01:50:42;;;;;;;14.57;9.93;;;22.90;81.20;;;-142.21;100.00;112049.66;5052257;28;20193;-76
2022/06/23 01:53:23;;;;;;;9.93;9.03;;;22.90;81.60;;;-142.21;100.00;112049.66;5038427;28;20191;-76
2022/06/23 01:56:15;;;;;;;9.87;8.90;;;22.90;81.40;;;-142.21;100.00;112049.66;5075104;28;20625;-75
2022/06/23 01:58:56;;;;;;;12.67;9.57;;;22.90;81.70;;;-142.21;100.00;112049.66;5066790;28;20228;-76
2022/06/23 02:01:37;;;;;;;11.50;9.93;;;22.90;81.80;;;-142.21;100.00;112049.66;5063436;28;20198;-77
2022/06/23 02:04:15;;;;;;;12.87;9.50;;;22.80;81.80;;;-142.21;100.00;112049.66;5060879;28;20280;-74
2022/06/23 02:06:51;;;;;;;11.63;9.13;;;22.80;81.60;;;-142.21;100.00;112049.66;5068079;28;20197;-75
2022/06/23 02:09:32;;;;;;;10.70;9.40;;;22.70;81.40;;;-142.21;100.00;112049.66;5066926;28;20278;-74
2022/06/23 02:12:00;;;;;;;10.27;8.97;;;22.70;81.40;;;-142.21;100.00;112049.66;5055654;28;20627;-74
2022/06/23 02:14:51;;;;;;;9.40;8.43;;;22.70;81.20;;;-142.21;100.00;112049.66;5055155;28;20200;-76
2022/06/23 02:17:36;;;;;;;10.73;8.93;;;22.70;81.50;;;-142.21;100.00;112049.66;5066180;28;20193;-76
2022/06/23 02:20:26;;;;;;;11.90;8.90;;;22.70;81.40;;;-142.21;100.00;112049.66;5060111;28;20194;-74
2022/06/23 02:23:10;;;;;;;11.70;8.90;;;22.60;81.10;;;-142.21;100.00;112049.66;5038586;28;20556;-76
2022/06/23 02:25:50;;;;;;;9.93;8.93;;;22.60;81.30;;;-142.21;100.00;112049.66;5032896;28;20208;-75
2022/06/23 02:28:31;;;;;;;11.63;8.30;;;22.60;80.80;;;-142.21;100.00;112049.66;5040611;28;20217;-75
2022/06/23 02:31:12;;;;;;;11.80;8.73;;;22.60;80.80;;;-142.21;100.00;112049.66;5058467;28;20237;-76
2022/06/23 02:33:50;;;;;;;12.10;9.87;;;22.60;81.50;;;-142.21;100.00;112049.66;5056240;28;20194;-76
2022/06/23 02:36:37;;;;;;;10.87;9.73;;;22.60;81.50;;;-142.21;100.00;112049.66;5056661;28;20202;-75
2022/06/23 02:39:14;;;;;;;11.40;9.47;;;22.50;82.90;;;-142.21;100.00;112049.66;5026630;28;20288;-76
2022/06/23 02:41:49;;;;;;;10.40;9.30;;;22.50;82.70;;;-142.21;100.00;112049.66;5057907;28;20204;-75
2022/06/23 02:44:41;;;;;;;12.10;9.03;;;22.50;83.30;;;-142.21;100.00;112049.66;5068516;28;20195;-76
2022/06/23 02:47:44;;;;;;;10.13;9.13;;;22.50;83.50;;;-142.21;100.00;112049.66;5055733;28;20221;-76
2022/06/23 02:50:39;;;;;;;10.53;8.50;;;22.60;83.90;;;-142.21;100.00;112049.66;5038544;28;20283;-76
2022/06/23 02:53:46;;;;;;;10.83;8.50;;;22.50;83.40;;;-142.21;100.00;112049.66;5069096;28;20200;-75
2022/06/23 02:56:51;;;;;;;13.27;8.30;;;22.50;83.30;;;-142.21;100.00;112049.66;5074005;28;20189;-75
2022/06/23 02:59:29;;;;;;;10.17;7.87;;;22.50;83.60;;;-142.21;100.00;112049.66;5048904;28;20198;-76
2022/06/23 03:02:03;;;;;;;11.67;8.40;;;22.50;83.30;;;-142.21;100.00;112049.66;5072872;28;20186;-74
2022/06/23 03:04:43;;;;;;;10.30;7.57;;;22.50;83.50;;;-142.21;100.00;112049.66;5072518;28;20197;-76
2022/06/23 03:07:22;;;;;;;9.87;7.43;;;22.50;83.30;;;-142.21;100.00;112049.66;5015717;28;20222;-74
2022/06/23 03:10:10;;;;;;;9.63;7.83;;;22.50;83.30;;;-142.21;100.00;112049.66;5069955;28;20189;-75
2022/06/23 03:12:44;;;;;;;8.23;7.17;;;22.50;82.90;;;-142.21;100.00;112049.66;5052512;28;20673;-76
2022/06/23 03:16:23;;;;;;;7.67;6.87;;;22.50;82.60;;;-142.21;100.00;112049.66;5064315;28;20702;-75
2022/06/23 03:18:58;;;;;;;8.37;6.70;;;22.50;82.40;;;-142.21;100.00;112049.66;5055685;28;20201;-75
2022/06/23 03:21:33;;;;;;;9.83;8.07;;;22.40;81.80;;;-142.21;100.00;112049.66;5053418;28;20267;-76
2022/06/23 03:24:11;;;;;;;9.87;6.90;;;22.40;81.90;;;-142.21;100.00;112049.66;5053822;28;20630;-75
2022/06/23 03:26:50;;;;;;;7.80;7.00;;;22.40;81.70;;;-142.21;100.00;112049.66;5054355;28;20201;-76
2022/06/23 03:29:25;;;;;;;10.37;6.93;;;22.40;82.40;;;-142.21;100.00;112049.66;5067856;28;20225;-75
2022/06/23 03:32:02;;;;;;;9.67;6.23;;;22.40;81.30;;;-142.21;100.00;112049.66;5073481;28;20196;-75
2022/06/23 03:34:35;;;;;;;7.77;6.90;;;22.40;81.10;;;-142.21;100.00;112049.66;5061907;28;20194;-76
2022/06/23 03:37:09;;;;;;;7.63;6.83;;;22.30;80.50;;;-142.21;100.00;112049.66;5069648;28;20556;-75
2022/06/23 03:42:37;;;;;;;8.57;6.60;;;22.30;80.80;;;-142.21;100.00;112049.66;5071515;28;20246;-76
2022/06/23 03:45:15;;;;;;;7.40;6.40;;;22.30;80.50;;;-142.21;100.00;112049.66;5072820;28;20197;-76
2022/06/23 03:47:55;;;;;;;10.17;7.00;;;22.30;80.90;;;-142.21;100.00;112049.66;5069895;28;20219;-75
2022/06/23 03:50:30;;;;;;;7.20;6.47;;;22.30;81.20;;;-142.21;100.00;112049.66;5057153;28;20198;-75
2022/06/23 03:53:03;;;;;;;7.67;6.70;;;22.30;81.10;;;-142.21;100.00;112049.66;5033440;28;20641;-75
2022/06/23 03:55:41;;;;;;;7.80;7.00;;;22.20;80.90;;;-142.21;100.00;112049.66;5049514;28;20288;-74
2022/06/23 03:58:16;;;;;;;8.77;7.60;;;22.10;80.80;;;-142.21;100.00;112049.66;5063533;28;20185;-74
2022/06/23 04:01:03;;;;;;;8.40;7.17;;;22.20;81.00;;;-142.21;100.00;112049.66;5054203;28;20541;-75
2022/06/23 04:03:39;;;;;;;7.90;7.00;;;22.20;80.50;;;-142.21;100.00;112049.66;5073406;28;20197;-74
2022/06/23 04:06:23;;;;;;;7.90;6.90;;;22.20;80.40;;;-142.21;100.00;112049.66;5069229;28;20725;-76
2022/06/23 04:09:01;;;;;;;12.93;9.03;;;22.20;80.80;;;-142.21;100.00;112049.66;5072974;28;20551;-74
2022/06/23 04:11:45;;;;;;;8.77;7.87;;;22.10;80.60;;;-142.21;100.00;112049.66;5071926;28;20193;-75
2022/06/23 04:14:25;;;;;;;7.93;7.13;;;22.20;80.90;;;-142.21;100.00;112049.66;5060326;28;20284;-76
2022/06/23 04:17:06;;;;;;;7.80;6.93;;;22.10;80.80;;;-142.21;100.00;112049.66;5062999;28;20221;-76
2022/06/23 04:19:36;;;;;;;8.87;7.07;;;22.10;81.20;;;-142.21;100.00;112049.66;5070648;28;20193;-75
2022/06/23 04:22:10;;;;;;;8.17;7.33;;;22.10;81.00;;;-142.21;100.00;112049.66;5072820;28;20284;-75
2022/06/23 04:24:43;;;;;;;8.03;7.23;;;22.20;81.10;;;-142.21;100.00;112049.66;5069986;28;20285;-75
2022/06/23 04:27:21;;;;;;;8.40;7.30;;;22.20;81.00;;;-142.21;100.00;112049.66;5051000;28;20573;-76
2022/06/23 04:29:54;;;;;;;10.77;7.63;;;22.20;81.10;;;-142.21;100.00;112049.66;5037888;28;20241;-76
2022/06/23 04:32:27;;;;;;;8.93;7.63;;;22.20;81.20;;;-142.21;100.00;112049.66;5061458;28;20190;-75
2022/06/23 04:35:00;;;;;;;9.63;7.63;;;22.20;81.30;;;-142.21;100.00;112049.66;5068517;28;20194;-76
2022/06/23 04:37:40;;;;;;;8.77;6.73;;;22.20;81.30;;;-142.21;100.00;112049.66;5056103;28;20600;-76
2022/06/23 04:40:22;;;;;;;7.93;7.13;;;22.20;81.30;;;-142.21;100.00;112049.66;5067134;28;20619;-76
2022/06/23 04:42:57;;;;;;;8.77;7.70;;;22.30;81.30;;;-142.21;100.00;112049.66;5052463;28;20201;-76
2022/06/23 04:45:49;;;;;;;11.87;8.57;;;22.30;81.20;;;-142.21;100.00;112049.66;5052677;28;20213;-76
2022/06/23 04:48:25;;;;;;;17.90;9.87;;;22.30;81.60;;;-142.21;100.00;112049.66;5058139;28;20205;-75
2022/06/23 04:51:00;;;;;;;13.37;8.47;;;22.30;81.40;;;-142.21;100.00;112049.66;5035679;28;20287;-75
2022/06/23 04:53:43;;;;;;;11.63;9.53;;;22.30;81.40;;;-142.21;100.00;112049.66;5069892;28;20197;-74
2022/06/23 04:56:24;;;;;;;19.27;9.30;;;22.30;81.40;;;-142.21;100.00;112049.66;5042425;28;20187;-75
2022/06/23 04:59:40;;;;;;;18.20;10.03;;;22.40;81.80;;;-142.21;100.00;112049.66;5053669;28;20204;-76
2022/06/23 05:02:28;;;;;;;11.87;9.10;;;22.40;82.00;;;-142.21;100.00;112049.66;5052991;28;20198;-77
2022/06/23 05:05:05;;;;;;;8.77;7.93;;;22.50;82.10;;;-142.21;100.00;112049.66;5067226;28;20193;-77
2022/06/23 05:07:43;;;;;;;9.03;7.57;;;22.50;82.20;;;-142.21;100.00;112049.66;5069833;28;20339;-77
2022/06/23 05:10:22;;;;;;;9.40;8.37;;;22.60;82.40;;;-142.21;100.00;112049.66;5067278;28;20221;-78
2022/06/23 05:12:56;;;;;;;9.43;8.13;;;22.60;82.50;;;-142.21;100.00;112049.66;5065602;28;20197;-76
2022/06/23 05:15:34;;;;;;;12.77;8.23;;;22.70;82.60;;;-142.21;100.00;112049.66;5067645;28;20190;-77
2022/06/23 05:18:14;;;;;;;10.43;8.57;;;22.70;82.70;;;-142.21;100.00;112049.66;5057284;28;20224;-76
2022/06/23 05:20:53;;;;;;;11.03;9.23;;;22.80;82.80;;;-142.21;100.00;112049.66;5063886;28;20541;-78
2022/06/23 05:23:26;;;;;;;11.80;8.83;;;22.90;82.90;;;-142.21;100.00;112049.66;5040454;28;20285;-76
2022/06/23 05:26:03;;;;;;;9.20;8.27;;;22.90;82.80;;;-142.21;100.00;112049.66;5057141;28;20196;-78
2022/06/23 05:28:37;;;;;;;10.37;8.47;;;23.00;83.00;;;-142.21;100.00;112049.66;5055293;28;20308;-77
2022/06/23 05:31:17;;;;;;;10.37;8.27;;;23.00;82.70;;;-142.21;100.00;112049.66;5055794;28;20237;-75
2022/06/23 05:33:49;;;;;;;9.50;8.40;;;23.10;83.00;;;-142.21;100.00;112049.66;5059832;28;20212;-76
2022/06/23 05:36:28;;;;;;;9.23;7.47;;;23.20;82.70;;;-142.21;100.00;112049.66;5055382;28;20393;-75
2022/06/23 05:39:02;;;;;;;11.90;7.57;;;23.30;83.00;;;-142.21;100.00;112049.66;5067530;28;20205;-75
2022/06/23 05:41:38;;;;;;;11.00;6.70;;;23.30;82.40;;;-142.21;100.00;112049.66;5023854;28;20210;-75
2022/06/23 05:44:16;;;;;;;8.40;5.93;;;23.40;81.80;;;-142.21;100.00;112049.66;5055618;28;20193;-76
2022/06/23 05:46:47;;;;;;;8.70;5.27;;;23.40;81.00;;;-142.21;100.00;112049.66;5053959;28;20196;-75
2022/06/23 05:49:24;;;;;;;11.17;5.70;;;23.40;81.10;;;-142.21;100.00;112049.66;5055324;28;20207;-76
2022/06/23 05:52:02;;;;;;;8.80;5.67;;;23.50;80.80;;;-142.21;100.00;112049.66;5064537;28;20260;-76
2022/06/23 05:54:38;;;;;;;9.13;4.90;;;23.50;81.10;;;-142.21;100.00;112049.66;5074972;28;20308;-75
2022/06/23 05:57:17;;;;;;;9.23;5.23;;;23.60;80.90;;;-142.21;100.00;112049.66;5070729;28;20203;-75
2022/06/23 06:00:01;;;;;;;6.23;4.67;;;23.70;80.60;;;-142.21;100.00;112049.66;5075019;28;20653;-75
2022/06/23 06:02:36;;;;;;;5.97;4.10;;;23.80;80.40;;;-142.21;100.00;112049.66;5055614;28;20194;-76
2022/06/23 06:05:05;;;;;;;10.50;5.00;;;23.90;79.90;;;-142.21;100.00;112049.66;5055948;28;20189;-76
2022/06/23 06:07:39;;;;;;;9.70;4.93;;;23.90;79.30;;;-142.21;100.00;112049.66;5054897;28;20735;-78
2022/06/23 06:10:20;;;;;;;6.30;4.60;;;24.00;78.90;;;-142.21;100.00;112049.66;5055589;28;20279;-77
2022/06/23 06:12:50;;;;;;;10.23;4.50;;;24.10;78.80;;;-142.21;100.00;112049.66;5055335;28;20204;-75
2022/06/23 06:15:24;;;;;;;8.23;4.57;;;24.10;78.10;;;-142.21;100.00;112049.66;5054889;28;20683;-75
2022/06/23 06:18:05;;;;;;;6.73;4.67;;;24.30;77.70;;;-142.21;100.00;112049.66;5054158;28;20312;-76
2022/06/23 06:20:34;;;;;;;7.90;3.83;;;24.40;78.30;;;-142.21;100.00;112049.66;5054815;28;20278;-77
2022/06/23 06:23:11;;;;;;;7.07;4.70;;;24.50;77.50;;;-142.21;100.00;112049.66;5054969;28;20260;-77
2022/06/23 06:25:47;;;;;;;8.37;3.57;;;24.60;77.60;;;-142.21;100.00;112049.66;5055301;28;20208;-76
2022/06/23 06:28:21;;;;;;;5.87;3.63;;;24.70;77.00;;;-142.21;100.00;112049.66;5055823;28;20304;-77
2022/06/23 06:31:01;;;;;;;5.30;3.60;;;24.70;75.80;;;-142.21;100.00;112049.66;5054785;28;20226;-76
2022/06/23 06:33:47;;;;;;;6.70;3.70;;;24.80;75.60;;;-142.21;100.00;112049.66;5054138;28;20228;-76
2022/06/23 06:36:28;;;;;;;4.13;3.33;;;24.80;74.80;;;-142.21;100.00;112049.66;5054628;28;20280;-78
2022/06/23 06:39:07;;;;;;;4.73;3.40;;;24.90;74.60;;;-142.21;100.00;112049.66;5054566;28;20196;-79
2022/06/23 06:41:38;;;;;;;7.90;4.20;;;24.90;74.60;;;-142.21;100.00;112049.66;5054250;28;20256;-77
2022/06/23 06:44:07;;;;;;;5.57;3.80;;;25.00;75.20;;;-142.21;100.00;112049.66;5054601;28;20248;-76
2022/06/23 06:46:39;;;;;;;6.47;3.70;;;25.00;75.10;;;-142.21;100.00;112049.66;5053164;28;20622;-75
2022/06/23 06:49:15;;;;;;;8.53;4.00;;;25.10;74.80;;;-142.21;100.00;112049.66;5054692;28;20606;-76
2022/06/23 06:51:43;;;;;;;6.23;3.53;;;25.10;74.80;;;-142.21;100.00;112049.66;5054268;28;20296;-74
2022/06/23 06:54:17;;;;;;;4.40;3.10;;;25.30;74.90;;;-142.21;100.00;112049.66;5054711;28;20238;-75
2022/06/23 06:56:49;;;;;;;5.90;2.83;;;25.40;73.70;;;-142.21;100.00;112049.66;5054504;28;20196;-76
2022/06/23 06:59:23;;;;;;;4.20;3.07;;;25.40;73.20;;;-142.21;100.00;112049.66;5054076;28;20186;-75
2022/06/23 07:01:58;;;;;;;8.03;3.30;;;25.50;73.40;;;-142.21;100.00;112049.66;5054472;28;20197;-76
2022/06/23 07:04:33;;;;;;;6.77;3.47;;;25.60;73.70;;;-142.21;100.00;112049.66;5054057;28;20569;-75
2022/06/23 07:07:09;;;;;;;6.90;3.40;;;25.70;73.10;;;-142.21;100.00;112049.66;5053680;28;20265;-75
2022/06/23 07:09:42;;;;;;;5.37;3.10;;;25.80;73.20;;;-142.21;100.00;112049.66;5053675;28;20295;-76
2022/06/23 07:12:19;;;;;;;3.97;3.37;;;25.90;72.50;;;-142.21;100.00;112049.66;5035930;28;20273;-75
2022/06/23 07:15:02;;;;;;;6.20;3.10;;;25.90;71.60;;;-142.21;100.00;112049.66;5054461;28;20273;-76
2022/06/23 07:17:38;;;;;;;4.27;2.97;;;25.80;71.70;;;-142.21;100.00;112049.66;5053808;28;20269;-74
2022/06/23 07:20:18;;;;;;;5.20;3.33;;;26.00;72.60;;;-142.21;100.00;112049.66;5018899;28;20201;-75
2022/06/23 07:22:54;;;;;;;5.20;3.20;;;26.10;72.80;;;-142.21;100.00;112049.66;5054046;28;20684;-74
2022/06/23 07:25:27;;;;;;;5.13;3.50;;;26.20;71.90;;;-142.21;100.00;112049.66;5053460;28;20198;-74
2022/06/23 07:28:03;;;;;;;7.73;3.40;;;26.30;71.60;;;-142.21;100.00;112049.66;5053511;28;20229;-77
2022/06/23 07:30:41;;;;;;;5.97;3.30;;;26.40;70.50;;;-142.21;100.00;112049.66;5053225;28;20261;-77
2022/06/23 07:33:18;;;;;;;4.80;3.90;;;26.50;69.80;;;-142.21;100.00;112049.66;5054066;28;20207;-76
2022/06/23 07:36:00;;;;;;;7.80;3.53;;;26.60;69.80;;;-142.21;100.00;112049.66;5053251;28;20273;-76
2022/06/23 07:38:38;;;;;;;9.30;3.60;;;26.70;70.10;;;-142.21;100.00;112049.66;5052781;28;20735;-76
2022/06/23 07:41:15;;;;;;;5.43;3.57;;;26.80;69.70;;;-142.21;100.00;112049.66;5053553;28;20201;-75
2022/06/23 07:43:53;;;;;;;5.47;3.60;;;26.90;69.30;;;-142.21;100.00;112049.66;5053364;28;20198;-75
2022/06/23 07:46:21;;;;;;;5.73;3.27;;;27.00;68.00;;;-142.21;100.00;112049.66;5052791;28;20771;-76
2022/06/23 07:48:49;;;;;;;7.20;2.93;;;27.00;68.20;;;-142.21;100.00;112049.66;5052047;28;20270;-75
2022/06/23 07:51:22;;;;;;;6.63;3.10;;;27.10;69.20;;;-142.21;100.00;112049.66;5053168;28;20268;-73
2022/06/23 07:53:54;;;;;;;6.87;3.50;;;27.20;67.60;;;-142.21;100.00;112049.66;5053119;28;20228;-75
2022/06/23 07:56:25;;;;;;;5.03;3.47;;;27.30;67.30;;;-142.21;98.66;112049.66;5052510;28;20214;-75
2022/06/23 07:58:57;;;;;;;6.50;3.33;;;27.20;65.50;;;-142.21;99.32;112049.66;5053071;28;20193;-75
2022/06/23 08:01:32;;;;;;;6.33;3.20;;;27.10;65.80;;;-142.21;100.00;112049.66;5052762;28;20277;-76
2022/06/23 08:04:11;;;;;;;5.53;3.30;;;27.10;67.40;;;-142.21;100.00;112049.66;5052621;28;20229;-76
2022/06/23 08:06:43;;;;;;;5.53;2.97;;;27.30;67.20;;;-142.21;100.00;112049.66;5052400;28;20296;-74
2022/06/23 08:09:20;;;;;;;4.97;2.97;;;27.50;67.20;;;-142.21;99.08;112049.66;5053063;28;20254;-75
2022/06/23 08:14:41;;;;;;;6.63;3.50;;;27.60;65.40;;;-142.21;98.59;112049.66;5052432;28;20194;-74
2022/06/23 08:17:15;;;;;;;4.40;2.80;;;27.70;65.50;;;-142.21;98.62;112049.66;5052751;28;20233;-76
2022/06/23 08:19:51;;;;;;;5.93;3.67;;;27.80;65.50;;;-142.21;97.39;112049.66;5051846;28;20227;-75
2022/06/23 08:22:26;;;;;;;5.73;2.73;;;27.80;64.70;;;-142.21;100.00;112049.66;5051978;28;20697;-75
2022/06/23 08:24:59;;;;;;;4.33;2.80;;;28.00;66.80;;;-142.21;98.76;112049.66;5052800;28;20708;-74
2022/06/23 08:27:29;;;;;;;4.40;2.90;;;28.20;65.40;;;-142.21;97.96;112049.66;5052425;28;20224;-75
2022/06/23 08:30:03;;;;;;;7.53;3.47;;;28.30;64.70;;;-142.21;95.64;112049.66;5052457;28;20244;-76
2022/06/23 08:32:32;;;;;;;6.57;3.20;;;28.40;63.50;;;-142.21;98.47;112049.66;5051810;28;20195;-74
2022/06/23 08:35:08;;;;;;;6.60;2.77;;;28.50;64.90;;;-142.21;96.10;112049.66;5052407;28;20212;-75
2022/06/23 08:37:49;;;;;;;4.83;3.37;;;28.70;64.10;;;-142.21;95.24;112049.66;5051706;28;20203;-76
2022/06/23 08:40:33;;;;;;;4.87;3.10;;;28.90;63.20;;;-142.21;93.30;112049.66;5052239;28;20270;-75
2022/06/23 08:43:16;;;;;;;5.97;3.00;;;28.90;62.20;;;-142.21;92.84;112049.66;5052758;28;20200;-75
2022/06/23 08:45:56;;;;;;;3.67;3.10;;;28.90;61.40;;;-142.21;92.17;112049.66;5051974;28;20202;-74
2022/06/23 08:48:41;;;;;;;8.40;3.63;;;28.90;61.50;;;-142.21;90.91;112049.66;5051420;28;20232;-76
2022/06/23 08:51:21;;;;;;;5.20;2.60;;;28.90;60.20;;;-142.21;93.20;112049.66;5052702;28;20228;-76
2022/06/23 08:54:05;;;;;;;5.27;3.00;;;29.00;61.10;;;-142.21;95.71;112049.66;5052432;28;20193;-75
2022/06/23 08:56:45;;;;;;;7.23;3.30;;;29.10;62.60;;;-142.21;93.38;112049.66;5034995;28;20222;-76
2022/06/23 08:59:26;;;;;;;6.23;3.03;;;29.10;61.40;;;-142.21;93.57;112049.66;5052280;28;20242;-77
2022/06/23 09:02:13;;;;;;;6.67;3.13;;;29.20;61.00;;;-142.21;91.29;112049.66;5052165;28;20227;-76
2022/06/23 09:04:54;;;;;;;6.70;3.50;;;29.20;60.00;;;-142.21;91.21;112049.66;5051725;28;20672;-76
2022/06/23 09:07:46;;;;;;;4.87;3.00;;;29.30;60.00;;;-142.21;92.08;112049.66;5051800;28;20203;-77
2022/06/23 09:10:30;;;;;;;8.23;3.43;;;29.20;59.90;;;-142.21;89.17;112049.66;5052108;28;20296;-76
2022/06/23 09:13:21;;;;;;;3.33;2.70;;;29.20;59.60;;;-142.21;90.80;112049.66;5052083;28;20241;-75
2022/06/23 09:16:13;;;;;;;3.73;3.40;;;29.30;59.90;;;-142.21;91.83;112049.66;5052176;28;20192;-75
2022/06/23 09:19:38;;;;;;;5.60;3.30;;;29.30;60.00;;;-142.21;91.50;112049.66;5051393;28;20706;-75
2022/06/23 09:22:44;;;;;;;7.57;3.50;;;29.50;60.10;;;-142.21;89.82;112049.66;5052245;28;20713;-75
2022/06/23 09:25:29;;;;;;;4.90;3.00;;;29.60;59.60;;;-142.21;88.32;112049.66;5051788;28;20283;-76
2022/06/23 09:28:28;;;;;;;6.73;2.90;;;29.60;58.70;;;-142.21;85.57;112049.66;5052046;28;20206;-76
2022/06/23 09:31:19;;;;;;;5.47;3.03;;;29.60;57.60;;;-142.21;88.62;112049.66;5051445;28;20253;-74
2022/06/23 09:34:12;;;;;;;4.97;2.80;;;29.70;59.10;;;-142.21;87.57;112049.66;5051215;28;20236;-74
2022/06/23 09:37:21;;;;;;;6.93;2.90;;;29.90;59.00;;;-142.21;87.72;112049.66;5051352;28;20213;-75
2022/06/23 09:40:28;;;;;;;6.40;3.80;;;29.90;58.30;;;-142.21;81.55;112049.66;5049665;28;20232;-77
2022/06/23 09:43:52;;;;;;;4.37;2.77;;;29.90;56.20;;;-142.21;87.32;112049.66;5054776;28;20255;-74
2022/06/23 09:46:59;;;;;;;6.63;3.07;;;29.90;58.50;;;-142.21;85.33;112049.66;5004875;28;20612;-76
2022/06/23 09:50:10;;;;;;;6.97;2.90;;;30.00;57.60;;;-142.21;86.59;112049.66;5051067;28;20217;-74
2022/06/23 09:53:35;;;;;;;9.07;3.13;;;30.10;57.90;;;-142.21;88.62;112049.66;5054973;28;20733;-76
2022/06/23 09:57:07;;;;;;;5.73;2.93;;;30.30;58.70;;;-142.21;80.07;112049.66;5032374;28;20292;-74
2022/06/23 10:00:05;;;;;;;5.07;2.73;;;30.40;55.40;;;-142.21;84.76;112049.66;4993161;28;20191;-75
2022/06/23 10:03:04;;;;;;;5.23;2.87;;;30.50;57.80;;;-142.21;82.34;112049.66;4993443;28;20274;-75
2022/06/23 10:06:04;;;;;;;6.63;3.40;;;30.60;56.60;;;-142.21;77.56;112049.66;5054502;28;20297;-75
2022/06/23 10:08:49;;;;;;;4.63;2.70;;;30.80;55.20;;;-142.21;82.75;112049.66;5054634;28;20678;-74
2022/06/23 10:11:48;;;;;;;4.47;2.80;;;30.80;56.70;;;-142.21;80.21;112049.66;5055394;28;20220;-76
2022/06/23 10:14:39;;;;;;;5.93;2.97;;;31.00;55.80;;;-142.21;80.36;112049.66;5054929;28;20282;-75
2022/06/23 10:17:40;;;;;;;4.97;2.83;;;31.10;55.90;;;-142.21;81.43;112049.66;5055311;28;20229;-75
2022/06/23 10:20:51;;;;;;;6.27;3.50;;;31.20;55.80;;;-142.21;75.03;112049.66;5054803;28;20255;-75
2022/06/23 10:23:47;;;;;;;7.53;3.30;;;31.20;53.60;;;-142.21;78.20;112049.66;5055310;28;20588;-76
2022/06/23 10:26:45;;;;;;;5.30;3.30;;;31.30;54.80;;;-142.21;74.57;112049.66;5054810;28;20247;-76
2022/06/23 10:29:37;;;;;;;5.60;3.23;;;31.30;53.50;;;-142.21;70.83;112049.66;5052254;28;20287;-76
2022/06/23 10:32:54;;;;;;;6.20;3.00;;;31.40;53.20;;;-142.21;72.75;112049.66;5054737;28;20243;-75
2022/06/23 10:35:46;;;;;;;3.40;2.40;;;31.40;53.10;;;-142.21;70.30;112049.66;5050975;28;20210;-76
2022/06/23 10:38:39;;;;;;;5.33;2.70;;;31.20;52.70;;;-142.21;70.89;112049.66;5054488;28;20259;-75
2022/06/23 10:41:31;;;;;;;7.27;3.23;;;31.20;53.20;;;-142.21;76.74;112049.66;5054908;28;20192;-74
2022/06/23 10:45:07;;;;;;;3.43;2.97;;;31.20;54.70;;;-142.21;73.22;112049.66;5054428;28;20229;-75
2022/06/23 10:48:17;;;;;;;4.70;2.70;;;31.40;54.00;;;-142.21;74.98;112049.66;5048210;28;20216;-76
2022/06/23 10:51:02;;;;;;;7.10;3.03;;;31.60;54.20;;;-142.21;72.79;112049.66;5054069;28;20598;-75
2022/06/23 10:54:23;;;;;;;6.67;3.13;;;31.80;53.80;;;-142.21;69.09;112049.66;5053844;28;20197;-75
2022/06/23 10:57:19;;;;;;;5.00;2.77;;;31.90;52.30;;;-142.21;67.87;112049.66;5053868;28;20192;-76
2022/06/23 11:00:11;;;;;;;3.43;2.30;;;32.00;52.10;;;-142.21;69.51;112049.66;5053719;28;20269;-75